sensor_id;sensor_type;location;lat;lon;timestamp;temperature;humidity
66144;SHT31;52947;50.842;6.084;2023-08-08T00:02:18;13.12;86.56
66144;SHT31;52947;50.842;6.084;2023-08-08T00:04:46;13.09;86.68
66144;SHT31;52947;50.842;6.084;2023-08-08T00:07:15;13.08;86.88
66144;SHT31;52947;50.842;6.084;2023-08-08T00:09:43;13.09;86.84
66144;SHT31;52947;50.842;6.084;2023-08-08T00:12:11;13.05;87.02
66144;SHT31;52947;50.842;6.084;2023-08-08T00:14:39;13.02;87.10
66144;SHT31;52947;50.842;6.084;2023-08-08T00:17:07;12.96;87.24
66144;SHT31;52947;50.842;6.084;2023-08-08T00:19:35;12.92;87.47
66144;SHT31;52947;50.842;6.084;2023-08-08T00:22:03;12.94;87.63
66144;SHT31;52947;50.842;6.084;2023-08-08T00:24:32;12.89;87.71
66144;SHT31;52947;50.842;6.084;2023-08-08T00:27:00;12.88;87.91
66144;SHT31;52947;50.842;6.084;2023-08-08T00:29:28;12.89;87.94
66144;SHT31;52947;50.842;6.084;2023-08-08T00:31:57;12.87;88.11
66144;SHT31;52947;50.842;6.084;2023-08-08T00:34:25;12.84;88.13
66144;SHT31;52947;50.842;6.084;2023-08-08T00:36:54;12.77;88.44
66144;SHT31;52947;50.842;6.084;2023-08-08T00:39:21;12.77;88.44
66144;SHT31;52947;50.842;6.084;2023-08-08T00:41:51;12.78;88.64
66144;SHT31;52947;50.842;6.084;2023-08-08T00:44:18;12.81;88.62
66144;SHT31;52947;50.842;6.084;2023-08-08T00:46:47;12.77;88.83
66144;SHT31;52947;50.842;6.084;2023-08-08T00:49:15;12.78;88.86
66144;SHT31;52947;50.842;6.084;2023-08-08T00:51:43;12.80;88.88
66144;SHT31;52947;50.842;6.084;2023-08-08T00:54:11;12.80;88.90
66144;SHT31;52947;50.842;6.084;2023-08-08T00:56:40;12.74;89.12
66144;SHT31;52947;50.842;6.084;2023-08-08T00:59:11;12.67;89.39
66144;SHT31;52947;50.842;6.084;2023-08-08T01:01:41;12.63;89.50
66144;SHT31;52947;50.842;6.084;2023-08-08T01:04:09;12.67;89.39
66144;SHT31;52947;50.842;6.084;2023-08-08T01:06:40;12.65;89.71
66144;SHT31;52947;50.842;6.084;2023-08-08T01:09:15;12.55;89.64
66144;SHT31;52947;50.842;6.084;2023-08-08T01:11:45;12.51;89.84
66144;SHT31;52947;50.842;6.084;2023-08-08T01:14:17;12.57;89.86
66144;SHT31;52947;50.842;6.084;2023-08-08T01:16:46;12.61;89.69
66144;SHT31;52947;50.842;6.084;2023-08-08T01:19:19;12.65;89.51
66144;SHT31;52947;50.842;6.084;2023-08-08T01:21:52;12.55;89.60
66144;SHT31;52947;50.842;6.084;2023-08-08T01:24:23;12.50;89.75
66144;SHT31;52947;50.842;6.084;2023-08-08T01:26:52;12.48;89.94
66144;SHT31;52947;50.842;6.084;2023-08-08T01:29:20;12.45;90.00
66144;SHT31;52947;50.842;6.084;2023-08-08T01:31:49;12.53;89.82
66144;SHT31;52947;50.842;6.084;2023-08-08T01:34:17;12.48;89.86
66144;SHT31;52947;50.842;6.084;2023-08-08T01:36:48;12.44;89.97
66144;SHT31;52947;50.842;6.084;2023-08-08T01:39:20;12.45;89.97
66144;SHT31;52947;50.842;6.084;2023-08-08T01:41:53;12.48;90.00
66144;SHT31;52947;50.842;6.084;2023-08-08T01:44:22;12.47;89.91
66144;SHT31;52947;50.842;6.084;2023-08-08T01:46:52;12.48;89.87
66144;SHT31;52947;50.842;6.084;2023-08-08T01:49:20;12.47;89.91
66144;SHT31;52947;50.842;6.084;2023-08-08T01:51:48;12.48;89.83
66144;SHT31;52947;50.842;6.084;2023-08-08T01:54:17;12.43;90.03
66144;SHT31;52947;50.842;6.084;2023-08-08T01:56:45;12.34;90.25
66144;SHT31;52947;50.842;6.084;2023-08-08T01:59:15;12.34;90.31
66144;SHT31;52947;50.842;6.084;2023-08-08T02:01:42;12.29;90.45
66144;SHT31;52947;50.842;6.084;2023-08-08T02:04:10;12.27;90.58
66144;SHT31;52947;50.842;6.084;2023-08-08T02:06:38;12.30;90.56
66144;SHT31;52947;50.842;6.084;2023-08-08T02:09:06;12.26;90.69
66144;SHT31;52947;50.842;6.084;2023-08-08T02:11:34;12.23;90.70
66144;SHT31;52947;50.842;6.084;2023-08-08T02:14:02;12.26;90.91
66144;SHT31;52947;50.842;6.084;2023-08-08T02:16:32;12.19;90.76
66144;SHT31;52947;50.842;6.084;2023-08-08T02:19:01;12.13;91.07
66144;SHT31;52947;50.842;6.084;2023-08-08T02:21:29;12.17;91.20
66144;SHT31;52947;50.842;6.084;2023-08-08T02:23:57;12.16;91.17
66144;SHT31;52947;50.842;6.084;2023-08-08T02:26:25;12.17;91.29
66144;SHT31;52947;50.842;6.084;2023-08-08T02:28:53;12.16;91.36
66144;SHT31;52947;50.842;6.084;2023-08-08T02:31:21;12.16;91.41
66144;SHT31;52947;50.842;6.084;2023-08-08T02:33:51;12.10;91.65
66144;SHT31;52947;50.842;6.084;2023-08-08T02:36:19;12.07;91.92
66144;SHT31;52947;50.842;6.084;2023-08-08T02:38:47;12.09;91.98
66144;SHT31;52947;50.842;6.084;2023-08-08T02:41:16;12.09;91.93
66144;SHT31;52947;50.842;6.084;2023-08-08T02:43:44;12.09;91.94
66144;SHT31;52947;50.842;6.084;2023-08-08T02:46:13;12.09;92.10
66144;SHT31;52947;50.842;6.084;2023-08-08T02:48:41;12.06;92.21
66144;SHT31;52947;50.842;6.084;2023-08-08T02:51:11;12.03;92.33
66144;SHT31;52947;50.842;6.084;2023-08-08T02:53:39;11.96;92.46
66144;SHT31;52947;50.842;6.084;2023-08-08T02:56:07;11.96;92.56
66144;SHT31;52947;50.842;6.084;2023-08-08T02:58:39;11.97;92.66
66144;SHT31;52947;50.842;6.084;2023-08-08T03:01:07;11.92;92.86
66144;SHT31;52947;50.842;6.084;2023-08-08T03:03:36;11.97;92.89
66144;SHT31;52947;50.842;6.084;2023-08-08T03:06:05;12.06;92.84
66144;SHT31;52947;50.842;6.084;2023-08-08T03:08:34;12.12;92.75
66144;SHT31;52947;50.842;6.084;2023-08-08T03:11:03;12.17;92.76
66144;SHT31;52947;50.842;6.084;2023-08-08T03:13:32;12.27;92.58
66144;SHT31;52947;50.842;6.084;2023-08-08T03:16:00;12.60;93.28
66144;SHT31;52947;50.842;6.084;2023-08-08T03:18:28;12.84;92.90
66144;SHT31;52947;50.842;6.084;2023-08-08T03:20:56;12.95;91.69
66144;SHT31;52947;50.842;6.084;2023-08-08T03:23:26;12.87;91.53
66144;SHT31;52947;50.842;6.084;2023-08-08T03:25:55;12.91;91.85
66144;SHT31;52947;50.842;6.084;2023-08-08T03:28:25;12.94;91.58
66144;SHT31;52947;50.842;6.084;2023-08-08T03:30:55;13.15;91.56
66144;SHT31;52947;50.842;6.084;2023-08-08T03:33:23;13.23;90.93
66144;SHT31;52947;50.842;6.084;2023-08-08T03:35:51;13.27;90.81
66144;SHT31;52947;50.842;6.084;2023-08-08T03:38:19;13.27;90.95
66144;SHT31;52947;50.842;6.084;2023-08-08T03:40:47;13.29;91.04
66144;SHT31;52947;50.842;6.084;2023-08-08T03:43:17;13.23;91.12
66144;SHT31;52947;50.842;6.084;2023-08-08T03:45:44;13.26;90.82
66144;SHT31;52947;50.842;6.084;2023-08-08T03:48:13;13.15;91.31
66144;SHT31;52947;50.842;6.084;2023-08-08T03:50:41;13.19;91.28
66144;SHT31;52947;50.842;6.084;2023-08-08T03:53:09;13.30;91.12
66144;SHT31;52947;50.842;6.084;2023-08-08T03:55:36;13.29;91.00
66144;SHT31;52947;50.842;6.084;2023-08-08T03:58:05;13.30;91.36
66144;SHT31;52947;50.842;6.084;2023-08-08T04:00:35;13.33;91.23
66144;SHT31;52947;50.842;6.084;2023-08-08T04:03:02;13.45;91.41
66144;SHT31;52947;50.842;6.084;2023-08-08T04:05:31;13.47;91.99
66144;SHT31;52947;50.842;6.084;2023-08-08T04:07:59;13.43;91.23
66144;SHT31;52947;50.842;6.084;2023-08-08T04:10:26;13.38;90.87
66144;SHT31;52947;50.842;6.084;2023-08-08T04:12:54;13.33;91.20
66144;SHT31;52947;50.842;6.084;2023-08-08T04:15:22;13.23;91.52
66144;SHT31;52947;50.842;6.084;2023-08-08T04:17:51;13.15;91.66
66144;SHT31;52947;50.842;6.084;2023-08-08T04:20:19;13.22;91.68
66144;SHT31;52947;50.842;6.084;2023-08-08T04:22:47;13.18;91.84
66144;SHT31;52947;50.842;6.084;2023-08-08T04:25:15;13.26;92.47
66144;SHT31;52947;50.842;6.084;2023-08-08T04:27:43;13.43;91.73
66144;SHT31;52947;50.842;6.084;2023-08-08T04:30:11;13.45;91.27
66144;SHT31;52947;50.842;6.084;2023-08-08T04:32:39;13.54;91.66
66144;SHT31;52947;50.842;6.084;2023-08-08T04:35:09;13.53;91.22
66144;SHT31;52947;50.842;6.084;2023-08-08T04:37:37;13.67;90.61
66144;SHT31;52947;50.842;6.084;2023-08-08T04:40:06;13.59;90.84
66144;SHT31;52947;50.842;6.084;2023-08-08T04:42:35;13.74;90.76
66144;SHT31;52947;50.842;6.084;2023-08-08T04:45:04;13.81;89.84
66144;SHT31;52947;50.842;6.084;2023-08-08T04:47:32;13.83;89.95
66144;SHT31;52947;50.842;6.084;2023-08-08T04:50:00;13.84;89.91
66144;SHT31;52947;50.842;6.084;2023-08-08T04:52:29;13.77;89.84
66144;SHT31;52947;50.842;6.084;2023-08-08T04:54:57;13.67;90.07
66144;SHT31;52947;50.842;6.084;2023-08-08T04:57:25;13.62;90.41
66144;SHT31;52947;50.842;6.084;2023-08-08T04:59:52;13.71;90.09
66144;SHT31;52947;50.842;6.084;2023-08-08T05:02:20;13.71;90.23
66144;SHT31;52947;50.842;6.084;2023-08-08T05:04:48;13.84;90.18
66144;SHT31;52947;50.842;6.084;2023-08-08T05:07:16;13.83;89.74
66144;SHT31;52947;50.842;6.084;2023-08-08T05:09:45;13.81;89.46
66144;SHT31;52947;50.842;6.084;2023-08-08T05:12:13;13.66;89.79
66144;SHT31;52947;50.842;6.084;2023-08-08T05:14:41;13.83;89.41
66144;SHT31;52947;50.842;6.084;2023-08-08T05:17:09;14.03;89.21
66144;SHT31;52947;50.842;6.084;2023-08-08T05:19:37;14.07;88.54
66144;SHT31;52947;50.842;6.084;2023-08-08T05:22:05;14.21;88.21
66144;SHT31;52947;50.842;6.084;2023-08-08T05:24:33;14.52;88.70
66144;SHT31;52947;50.842;6.084;2023-08-08T05:27:04;14.89;86.42
66144;SHT31;52947;50.842;6.084;2023-08-08T05:29:32;15.23;85.74
66144;SHT31;52947;50.842;6.084;2023-08-08T05:32:00;15.10;86.10
66144;SHT31;52947;50.842;6.084;2023-08-08T05:34:30;15.19;86.15
66144;SHT31;52947;50.842;6.084;2023-08-08T05:36:58;15.40;84.91
66144;SHT31;52947;50.842;6.084;2023-08-08T05:39:41;15.54;84.79
66144;SHT31;52947;50.842;6.084;2023-08-08T05:42:11;15.40;84.97
66144;SHT31;52947;50.842;6.084;2023-08-08T05:44:39;15.68;84.91
66144;SHT31;52947;50.842;6.084;2023-08-08T05:47:08;15.51;84.73
66144;SHT31;52947;50.842;6.084;2023-08-08T05:49:36;15.27;85.49
66144;SHT31;52947;50.842;6.084;2023-08-08T05:52:05;15.28;85.81
66144;SHT31;52947;50.842;6.084;2023-08-08T05:54:33;16.23;83.83
66144;SHT31;52947;50.842;6.084;2023-08-08T05:57:01;17.01;81.22
66144;SHT31;52947;50.842;6.084;2023-08-08T05:59:31;16.57;82.04
66144;SHT31;52947;50.842;6.084;2023-08-08T06:01:59;16.74;81.78
66144;SHT31;52947;50.842;6.084;2023-08-08T06:04:27;17.03;81.29
66144;SHT31;52947;50.842;6.084;2023-08-08T06:06:55;16.59;81.67
66144;SHT31;52947;50.842;6.084;2023-08-08T06:09:23;16.98;80.85
66144;SHT31;52947;50.842;6.084;2023-08-08T06:11:51;16.90;81.17
66144;SHT31;52947;50.842;6.084;2023-08-08T06:14:19;16.40;82.96
66144;SHT31;52947;50.842;6.084;2023-08-08T06:16:48;16.50;83.04
66144;SHT31;52947;50.842;6.084;2023-08-08T06:19:16;16.69;81.99
66144;SHT31;52947;50.842;6.084;2023-08-08T06:21:45;16.59;82.14
66144;SHT31;52947;50.842;6.084;2023-08-08T06:24:13;16.47;82.99
66144;SHT31;52947;50.842;6.084;2023-08-08T06:26:41;16.20;83.53
66144;SHT31;52947;50.842;6.084;2023-08-08T06:29:09;15.87;84.47
66144;SHT31;52947;50.842;6.084;2023-08-08T06:31:37;15.67;84.84
66144;SHT31;52947;50.842;6.084;2023-08-08T06:34:06;15.91;84.42
66144;SHT31;52947;50.842;6.084;2023-08-08T06:36:34;16.90;82.55
66144;SHT31;52947;50.842;6.084;2023-08-08T06:39:02;17.56;80.33
66144;SHT31;52947;50.842;6.084;2023-08-08T06:41:31;17.06;81.47
66144;SHT31;52947;50.842;6.084;2023-08-08T06:44:00;16.87;81.60
66144;SHT31;52947;50.842;6.084;2023-08-08T06:46:28;16.59;82.53
66144;SHT31;52947;50.842;6.084;2023-08-08T06:48:56;16.50;82.58
66144;SHT31;52947;50.842;6.084;2023-08-08T06:51:27;16.67;82.90
66144;SHT31;52947;50.842;6.084;2023-08-08T06:53:55;16.39;82.85
66144;SHT31;52947;50.842;6.084;2023-08-08T06:56:23;16.16;83.65
66144;SHT31;52947;50.842;6.084;2023-08-08T06:58:52;16.22;83.85
66144;SHT31;52947;50.842;6.084;2023-08-08T07:01:20;16.22;83.88
66144;SHT31;52947;50.842;6.084;2023-08-08T07:03:48;16.39;84.45
66144;SHT31;52947;50.842;6.084;2023-08-08T07:06:17;16.32;83.75
66144;SHT31;52947;50.842;6.084;2023-08-08T07:08:47;16.05;83.92
66144;SHT31;52947;50.842;6.084;2023-08-08T07:11:15;16.42;83.68
66144;SHT31;52947;50.842;6.084;2023-08-08T07:13:43;16.67;83.32
66144;SHT31;52947;50.842;6.084;2023-08-08T07:16:11;16.50;83.01
66144;SHT31;52947;50.842;6.084;2023-08-08T07:18:39;16.83;82.62
66144;SHT31;52947;50.842;6.084;2023-08-08T07:21:07;17.01;82.47
66144;SHT31;52947;50.842;6.084;2023-08-08T07:23:35;16.84;82.34
66144;SHT31;52947;50.842;6.084;2023-08-08T07:26:04;16.74;82.28
66144;SHT31;52947;50.842;6.084;2023-08-08T07:28:32;16.60;83.03
66144;SHT31;52947;50.842;6.084;2023-08-08T07:31:00;17.51;80.99
66144;SHT31;52947;50.842;6.084;2023-08-08T07:33:28;17.61;80.83
66144;SHT31;52947;50.842;6.084;2023-08-08T07:35:56;17.41;81.15
66144;SHT31;52947;50.842;6.084;2023-08-08T07:38:24;17.25;80.72
66144;SHT31;52947;50.842;6.084;2023-08-08T07:40:52;17.21;82.09
66144;SHT31;52947;50.842;6.084;2023-08-08T07:43:21;17.45;80.93
66144;SHT31;52947;50.842;6.084;2023-08-08T07:45:49;17.35;80.96
66144;SHT31;52947;50.842;6.084;2023-08-08T07:48:17;17.49;81.57
66144;SHT31;52947;50.842;6.084;2023-08-08T07:50:45;17.35;81.00
66144;SHT31;52947;50.842;6.084;2023-08-08T07:53:13;17.22;81.11
66144;SHT31;52947;50.842;6.084;2023-08-08T07:55:41;17.66;81.18
66144;SHT31;52947;50.842;6.084;2023-08-08T07:58:09;17.53;80.70
66144;SHT31;52947;50.842;6.084;2023-08-08T08:00:38;17.66;80.61
66144;SHT31;52947;50.842;6.084;2023-08-08T08:03:06;17.24;80.89
66144;SHT31;52947;50.842;6.084;2023-08-08T08:05:34;17.39;80.88
66144;SHT31;52947;50.842;6.084;2023-08-08T08:08:03;17.36;81.50
66144;SHT31;52947;50.842;6.084;2023-08-08T08:10:31;17.42;80.56
66144;SHT31;52947;50.842;6.084;2023-08-08T08:12:59;17.49;80.42
66144;SHT31;52947;50.842;6.084;2023-08-08T08:15:27;17.75;79.97
66144;SHT31;52947;50.842;6.084;2023-08-08T08:17:56;18.06;79.51
66144;SHT31;52947;50.842;6.084;2023-08-08T08:20:24;18.48;77.54
66144;SHT31;52947;50.842;6.084;2023-08-08T08:22:52;18.40;76.49
66144;SHT31;52947;50.842;6.084;2023-08-08T08:25:20;18.81;75.69
66144;SHT31;52947;50.842;6.084;2023-08-08T08:27:48;19.37;75.09
66144;SHT31;52947;50.842;6.084;2023-08-08T08:30:16;19.43;74.50
66144;SHT31;52947;50.842;6.084;2023-08-08T08:32:45;19.33;74.61
66144;SHT31;52947;50.842;6.084;2023-08-08T08:35:15;18.99;74.89
66144;SHT31;52947;50.842;6.084;2023-08-08T08:37:43;19.46;74.98
66144;SHT31;52947;50.842;6.084;2023-08-08T08:40:11;19.40;75.19
66144;SHT31;52947;50.842;6.084;2023-08-08T08:42:39;19.26;74.67
66144;SHT31;52947;50.842;6.084;2023-08-08T08:45:09;19.12;75.11
66144;SHT31;52947;50.842;6.084;2023-08-08T08:47:37;18.87;75.90
66144;SHT31;52947;50.842;6.084;2023-08-08T08:50:08;19.09;75.65
66144;SHT31;52947;50.842;6.084;2023-08-08T08:52:38;19.15;75.07
66144;SHT31;52947;50.842;6.084;2023-08-08T08:55:07;19.23;74.71
66144;SHT31;52947;50.842;6.084;2023-08-08T08:57:35;19.94;74.27
66144;SHT31;52947;50.842;6.084;2023-08-08T09:00:05;19.62;73.98
66144;SHT31;52947;50.842;6.084;2023-08-08T09:02:33;20.01;73.57
66144;SHT31;52947;50.842;6.084;2023-08-08T09:05:03;20.05;72.82
66144;SHT31;52947;50.842;6.084;2023-08-08T09:07:32;20.18;72.21
66144;SHT31;52947;50.842;6.084;2023-08-08T09:10:02;19.54;72.81
66144;SHT31;52947;50.842;6.084;2023-08-08T09:12:31;19.16;73.47
66144;SHT31;52947;50.842;6.084;2023-08-08T09:14:59;19.19;74.58
66144;SHT31;52947;50.842;6.084;2023-08-08T09:17:27;19.01;74.76
66144;SHT31;52947;50.842;6.084;2023-08-08T09:20:14;18.87;74.55
66144;SHT31;52947;50.842;6.084;2023-08-08T09:22:42;18.94;74.35
66144;SHT31;52947;50.842;6.084;2023-08-08T09:25:11;18.71;75.23
66144;SHT31;52947;50.842;6.084;2023-08-08T09:27:40;18.41;76.56
66144;SHT31;52947;50.842;6.084;2023-08-08T09:30:09;18.43;76.09
66144;SHT31;52947;50.842;6.084;2023-08-08T09:32:38;18.38;76.63
66144;SHT31;52947;50.842;6.084;2023-08-08T09:35:07;18.65;76.57
66144;SHT31;52947;50.842;6.084;2023-08-08T09:37:37;18.87;76.18
66144;SHT31;52947;50.842;6.084;2023-08-08T09:40:06;19.16;74.02
66144;SHT31;52947;50.842;6.084;2023-08-08T09:42:36;18.98;74.28
66144;SHT31;52947;50.842;6.084;2023-08-08T09:45:05;18.92;73.95
66144;SHT31;52947;50.842;6.084;2023-08-08T09:47:33;18.96;73.50
66144;SHT31;52947;50.842;6.084;2023-08-08T09:50:02;19.13;74.89
66144;SHT31;52947;50.842;6.084;2023-08-08T09:52:33;19.01;73.34
66144;SHT31;52947;50.842;6.084;2023-08-08T09:55:02;19.18;74.31
66144;SHT31;52947;50.842;6.084;2023-08-08T09:57:32;19.16;74.21
66144;SHT31;52947;50.842;6.084;2023-08-08T10:00:02;19.46;73.49
66144;SHT31;52947;50.842;6.084;2023-08-08T10:02:32;19.80;73.98
66144;SHT31;52947;50.842;6.084;2023-08-08T10:05:01;19.88;72.02
66144;SHT31;52947;50.842;6.084;2023-08-08T10:07:30;19.30;72.64
66144;SHT31;52947;50.842;6.084;2023-08-08T10:09:58;18.95;73.75
66144;SHT31;52947;50.842;6.084;2023-08-08T10:12:26;18.76;74.76
66144;SHT31;52947;50.842;6.084;2023-08-08T10:14:55;19.16;74.60
66144;SHT31;52947;50.842;6.084;2023-08-08T10:17:24;19.12;73.86
66144;SHT31;52947;50.842;6.084;2023-08-08T10:19:54;19.22;74.12
66144;SHT31;52947;50.842;6.084;2023-08-08T10:22:24;19.23;73.50
66144;SHT31;52947;50.842;6.084;2023-08-08T10:24:53;19.40;72.81
66144;SHT31;52947;50.842;6.084;2023-08-08T10:27:28;19.40;72.69
66144;SHT31;52947;50.842;6.084;2023-08-08T10:30:01;19.53;72.04
66144;SHT31;52947;50.842;6.084;2023-08-08T10:32:39;19.63;72.13
66144;SHT31;52947;50.842;6.084;2023-08-08T10:35:08;19.83;71.39
66144;SHT31;52947;50.842;6.084;2023-08-08T10:37:37;19.73;70.82
66144;SHT31;52947;50.842;6.084;2023-08-08T10:40:06;19.23;70.94
66144;SHT31;52947;50.842;6.084;2023-08-08T10:42:42;19.29;71.61
66144;SHT31;52947;50.842;6.084;2023-08-08T10:45:12;19.23;71.83
66144;SHT31;52947;50.842;6.084;2023-08-08T10:47:42;19.22;72.87
66144;SHT31;52947;50.842;6.084;2023-08-08T10:50:13;19.47;72.22
66144;SHT31;52947;50.842;6.084;2023-08-08T10:52:52;19.50;72.85
66144;SHT31;52947;50.842;6.084;2023-08-08T10:55:21;19.19;73.39
66144;SHT31;52947;50.842;6.084;2023-08-08T10:57:56;18.89;73.84
66144;SHT31;52947;50.842;6.084;2023-08-08T11:00:27;18.79;74.11
66144;SHT31;52947;50.842;6.084;2023-08-08T11:02:58;18.38;74.87
66144;SHT31;52947;50.842;6.084;2023-08-08T11:05:28;18.40;75.08
66144;SHT31;52947;50.842;6.084;2023-08-08T11:07:57;18.38;74.39
66144;SHT31;52947;50.842;6.084;2023-08-08T11:10:25;18.69;73.97
66144;SHT31;52947;50.842;6.084;2023-08-08T11:12:58;18.58;74.17
66144;SHT31;52947;50.842;6.084;2023-08-08T11:15:27;18.38;73.78
66144;SHT31;52947;50.842;6.084;2023-08-08T11:17:57;18.29;74.17
66144;SHT31;52947;50.842;6.084;2023-08-08T11:20:29;18.41;74.60
66144;SHT31;52947;50.842;6.084;2023-08-08T11:22:57;18.51;72.88
66144;SHT31;52947;50.842;6.084;2023-08-08T11:25:27;18.34;72.41
66144;SHT31;52947;50.842;6.084;2023-08-08T11:27:56;18.67;73.69
66144;SHT31;52947;50.842;6.084;2023-08-08T11:30:27;18.75;73.22
66144;SHT31;52947;50.842;6.084;2023-08-08T11:32:55;18.69;73.11
66144;SHT31;52947;50.842;6.084;2023-08-08T11:35:28;18.68;72.17
66144;SHT31;52947;50.842;6.084;2023-08-08T11:37:57;18.76;72.44
66144;SHT31;52947;50.842;6.084;2023-08-08T11:40:27;18.75;72.80
66144;SHT31;52947;50.842;6.084;2023-08-08T11:42:55;18.65;72.10
66144;SHT31;52947;50.842;6.084;2023-08-08T11:45:24;18.43;72.73
66144;SHT31;52947;50.842;6.084;2023-08-08T11:47:53;18.47;74.39
66144;SHT31;52947;50.842;6.084;2023-08-08T11:50:23;18.29;73.53
66144;SHT31;52947;50.842;6.084;2023-08-08T11:52:53;18.14;73.66
66144;SHT31;52947;50.842;6.084;2023-08-08T11:55:27;18.31;73.76
66144;SHT31;52947;50.842;6.084;2023-08-08T11:57:56;18.58;72.99
66144;SHT31;52947;50.842;6.084;2023-08-08T12:00:27;18.60;71.79
66144;SHT31;52947;50.842;6.084;2023-08-08T12:02:57;18.84;72.50
66144;SHT31;52947;50.842;6.084;2023-08-08T12:05:26;19.02;72.40
66144;SHT31;52947;50.842;6.084;2023-08-08T12:07:55;19.06;71.52
66144;SHT31;52947;50.842;6.084;2023-08-08T12:10:26;18.92;71.22
66144;SHT31;52947;50.842;6.084;2023-08-08T12:12:56;19.12;71.18
66144;SHT31;52947;50.842;6.084;2023-08-08T12:15:35;19.23;71.76
66144;SHT31;52947;50.842;6.084;2023-08-08T12:18:05;19.22;71.06
66144;SHT31;52947;50.842;6.084;2023-08-08T12:20:34;19.15;71.42
66144;SHT31;52947;50.842;6.084;2023-08-08T12:23:05;18.96;70.25
66144;SHT31;52947;50.842;6.084;2023-08-08T12:25:33;18.89;71.27
66144;SHT31;52947;50.842;6.084;2023-08-08T12:28:01;19.05;71.20
66144;SHT31;52947;50.842;6.084;2023-08-08T12:30:29;18.95;71.17
66144;SHT31;52947;50.842;6.084;2023-08-08T12:32:57;19.03;71.01
66144;SHT31;52947;50.842;6.084;2023-08-08T12:35:25;18.95;71.84
66144;SHT31;52947;50.842;6.084;2023-08-08T12:37:54;18.98;72.56
66144;SHT31;52947;50.842;6.084;2023-08-08T12:40:23;18.88;71.45
66144;SHT31;52947;50.842;6.084;2023-08-08T12:42:52;19.08;72.22
66144;SHT31;52947;50.842;6.084;2023-08-08T12:45:19;19.27;71.22
66144;SHT31;52947;50.842;6.084;2023-08-08T12:47:47;19.26;72.42
66144;SHT31;52947;50.842;6.084;2023-08-08T12:50:15;19.15;72.90
66144;SHT31;52947;50.842;6.084;2023-08-08T12:52:44;18.72;72.69
66144;SHT31;52947;50.842;6.084;2023-08-08T12:55:11;18.61;73.29
66144;SHT31;52947;50.842;6.084;2023-08-08T12:57:43;18.57;73.02
66144;SHT31;52947;50.842;6.084;2023-08-08T13:00:11;18.44;73.39
66144;SHT31;52947;50.842;6.084;2023-08-08T13:02:40;18.37;73.86
66144;SHT31;52947;50.842;6.084;2023-08-08T13:05:08;18.40;74.30
66144;SHT31;52947;50.842;6.084;2023-08-08T13:07:36;18.41;73.76
66144;SHT31;52947;50.842;6.084;2023-08-08T13:10:05;18.43;74.82
66144;SHT31;52947;50.842;6.084;2023-08-08T13:12:33;18.44;74.73
66144;SHT31;52947;50.842;6.084;2023-08-08T13:15:04;18.21;74.89
66144;SHT31;52947;50.842;6.084;2023-08-08T13:17:34;18.09;75.16
66144;SHT31;52947;50.842;6.084;2023-08-08T13:20:03;18.09;75.70
66144;SHT31;52947;50.842;6.084;2023-08-08T13:22:31;18.24;75.63
66144;SHT31;52947;50.842;6.084;2023-08-08T13:24:59;18.50;75.54
66144;SHT31;52947;50.842;6.084;2023-08-08T13:27:27;18.58;75.10
66144;SHT31;52947;50.842;6.084;2023-08-08T13:29:55;18.75;73.51
66144;SHT31;52947;50.842;6.084;2023-08-08T13:32:25;19.06;74.19
66144;SHT31;52947;50.842;6.084;2023-08-08T13:34:53;19.57;71.83
66144;SHT31;52947;50.842;6.084;2023-08-08T13:37:21;19.63;71.66
66144;SHT31;52947;50.842;6.084;2023-08-08T13:39:49;19.54;71.29
66144;SHT31;52947;50.842;6.084;2023-08-08T13:42:17;19.36;70.83
66144;SHT31;52947;50.842;6.084;2023-08-08T13:44:45;19.18;72.35
66144;SHT31;52947;50.842;6.084;2023-08-08T13:47:12;19.30;71.60
66144;SHT31;52947;50.842;6.084;2023-08-08T13:49:42;19.54;71.98
66144;SHT31;52947;50.842;6.084;2023-08-08T13:52:10;19.87;70.94
66144;SHT31;52947;50.842;6.084;2023-08-08T13:54:38;20.22;70.73
66144;SHT31;52947;50.842;6.084;2023-08-08T13:57:06;19.81;69.76
66144;SHT31;52947;50.842;6.084;2023-08-08T13:59:34;19.64;71.02
66144;SHT31;52947;50.842;6.084;2023-08-08T14:02:02;19.54;70.43
66144;SHT31;52947;50.842;6.084;2023-08-08T14:04:30;19.45;71.57
66144;SHT31;52947;50.842;6.084;2023-08-08T14:07:00;19.52;71.71
66144;SHT31;52947;50.842;6.084;2023-08-08T14:09:28;19.54;70.89
66144;SHT31;52947;50.842;6.084;2023-08-08T14:11:56;19.81;71.38
66144;SHT31;52947;50.842;6.084;2023-08-08T14:14:26;20.01;70.94
66144;SHT31;52947;50.842;6.084;2023-08-08T14:16:53;19.87;70.90
66144;SHT31;52947;50.842;6.084;2023-08-08T14:19:22;19.80;70.80
66144;SHT31;52947;50.842;6.084;2023-08-08T14:21:50;19.62;70.61
66144;SHT31;52947;50.842;6.084;2023-08-08T14:24:19;19.64;71.38
66144;SHT31;52947;50.842;6.084;2023-08-08T14:26:47;19.83;70.99
66144;SHT31;52947;50.842;6.084;2023-08-08T14:29:15;20.03;71.33
66144;SHT31;52947;50.842;6.084;2023-08-08T14:31:43;20.04;69.26
66144;SHT31;52947;50.842;6.084;2023-08-08T14:34:29;20.04;70.30
66144;SHT31;52947;50.842;6.084;2023-08-08T14:36:58;19.83;70.69
66144;SHT31;52947;50.842;6.084;2023-08-08T14:39:27;19.98;69.76
66144;SHT31;52947;50.842;6.084;2023-08-08T14:41:56;20.07;71.44
66144;SHT31;52947;50.842;6.084;2023-08-08T14:44:25;19.87;70.42
66144;SHT31;52947;50.842;6.084;2023-08-08T14:46:53;19.77;71.05
66144;SHT31;52947;50.842;6.084;2023-08-08T14:49:21;19.77;70.92
66144;SHT31;52947;50.842;6.084;2023-08-08T14:51:49;19.74;72.12
66144;SHT31;52947;50.842;6.084;2023-08-08T14:54:17;19.63;71.89
66144;SHT31;52947;50.842;6.084;2023-08-08T14:56:46;19.60;72.50
66144;SHT31;52947;50.842;6.084;2023-08-08T14:59:14;19.42;73.02
66144;SHT31;52947;50.842;6.084;2023-08-08T15:01:42;19.32;72.81
66144;SHT31;52947;50.842;6.084;2023-08-08T15:04:10;19.18;73.07
66144;SHT31;52947;50.842;6.084;2023-08-08T15:06:38;19.27;72.52
66144;SHT31;52947;50.842;6.084;2023-08-08T15:09:08;19.33;72.61
66144;SHT31;52947;50.842;6.084;2023-08-08T15:11:36;19.40;72.46
66144;SHT31;52947;50.842;6.084;2023-08-08T15:14:05;19.34;72.11
66144;SHT31;52947;50.842;6.084;2023-08-08T15:16:33;19.40;72.28
66144;SHT31;52947;50.842;6.084;2023-08-08T15:19:01;19.39;72.09
66144;SHT31;52947;50.842;6.084;2023-08-08T15:21:29;19.64;71.89
66144;SHT31;52947;50.842;6.084;2023-08-08T15:23:57;19.70;71.92
66144;SHT31;52947;50.842;6.084;2023-08-08T15:26:25;19.39;72.26
66144;SHT31;52947;50.842;6.084;2023-08-08T15:28:53;19.30;72.00
66144;SHT31;52947;50.842;6.084;2023-08-08T15:31:22;19.27;71.89
66144;SHT31;52947;50.842;6.084;2023-08-08T15:33:50;19.52;72.10
66144;SHT31;52947;50.842;6.084;2023-08-08T15:36:18;19.53;72.71
66144;SHT31;52947;50.842;6.084;2023-08-08T15:38:47;19.52;73.35
66144;SHT31;52947;50.842;6.084;2023-08-08T15:41:15;19.40;72.93